Time;durP1;ratioP1;P1;durP2;ratioP2;P2;SDS_P1;SDS_P2;PMS_P1;PMS_P2;Temp;Humidity;BMP_temperature;BMP_pressure;BME280_temperature;BME280_humidity;BME280_pressure;Samples;Min_cycle;Max_cycle;Signal;HPM_P1;HPM_P2
2021/12/07 00:01:30;;;;;;;4.40;1.27;;;;;;;;;;5035043;28;20024;-77
2021/12/07 00:03:57;;;;;;;5.55;1.25;;;;;;;;;;5037640;28;20394;-77
2021/12/07 01:25:06;;;;;;;11.13;2.17;;;;;;;;;;5038011;28;20684;-76
2021/12/07 01:27:32;;;;;;;15.27;2.65;;;;;;;;;;5036505;28;20410;-73
2021/12/07 01:30:09;;;;;;;13.05;2.40;;;;;;;;;;5038257;28;20045;-76
2021/12/07 02:00:54;;;;;;;10.32;2.05;;;;;;;;;;5037213;28;20033;-74
2021/12/07 02:03:20;;;;;;;6.68;1.92;;;;;;;;;;5038777;28;20071;-73
2021/12/07 02:05:47;;;;;;;6.05;2.10;;;;;;;;;;5035262;28;20034;-74
2021/12/07 02:08:13;;;;;;;7.90;2.42;;;;;;;;;;5036742;28;20033;-71
2021/12/07 02:10:39;;;;;;;8.38;2.75;;;;;;;;;;5037857;28;20349;-74
2021/12/07 02:13:19;;;;;;;8.68;2.70;;;;;;;;;;5038632;28;20478;-75
2021/12/07 02:15:45;;;;;;;8.80;2.08;;;;;;;;;;5038353;28;20101;-75
2021/12/07 02:18:12;;;;;;;12.95;2.92;;;;;;;;;;5038395;28;20082;-75
2021/12/07 02:20:38;;;;;;;9.55;2.00;;;;;;;;;;5036989;28;20029;-76
2021/12/07 02:23:04;;;;;;;9.15;2.25;;;;;;;;;;5037954;28;20009;-75
2021/12/07 02:25:32;;;;;;;6.18;1.95;;;;;;;;;;5038149;28;20021;-75
2021/12/07 02:27:59;;;;;;;11.10;2.00;;;;;;;;;;5034981;28;20028;-75
2021/12/07 02:30:26;;;;;;;14.10;1.75;;;;;;;;;;5035710;28;20026;-74
2021/12/07 02:32:55;;;;;;;6.30;2.10;;;;;;;;;;5039265;28;20559;-75
2021/12/07 02:35:25;;;;;;;11.57;2.45;;;;;;;;;;5037080;28;20563;-75
2021/12/07 02:37:52;;;;;;;6.57;2.50;;;;;;;;;;5036632;28;20025;-75
2021/12/07 02:40:19;;;;;;;8.80;1.75;;;;;;;;;;5034667;28;20056;-74
2021/12/07 02:42:45;;;;;;;6.53;1.48;;;;;;;;;;5036728;28;20473;-75
2021/12/07 02:45:11;;;;;;;9.82;1.92;;;;;;;;;;5036268;28;20025;-76
2021/12/07 02:47:38;;;;;;;7.95;1.83;;;;;;;;;;5035024;28;20063;-76
2021/12/07 02:50:05;;;;;;;6.47;1.38;;;;;;;;;;5037199;28;20449;-75
2021/12/07 02:52:31;;;;;;;4.38;1.60;;;;;;;;;;5037601;28;20025;-75
2021/12/07 02:54:57;;;;;;;7.32;1.92;;;;;;;;;;5040319;28;20109;-75
2021/12/07 02:57:24;;;;;;;9.07;1.40;;;;;;;;;;5038719;28;20033;-76
2021/12/07 02:59:59;;;;;;;6.00;1.52;;;;;;;;;;5034996;28;20025;-75
2021/12/07 03:02:26;;;;;;;6.60;1.73;;;;;;;;;;5038030;28;20021;-75
2021/12/07 03:05:03;;;;;;;9.18;1.30;;;;;;;;;;5036682;28;20025;-75
2021/12/07 03:08:06;;;;;;;8.15;1.30;;;;;;;;;;5035285;28;20030;-76
2021/12/07 03:27:00;;;;;;;6.65;1.58;;;;;;;;;;5040356;28;20048;-76
2021/12/07 03:29:26;;;;;;;8.57;2.28;;;;;;;;;;5039405;28;20042;-75
2021/12/07 03:31:52;;;;;;;7.15;1.70;;;;;;;;;;5041419;28;20096;-75
2021/12/07 03:34:18;;;;;;;14.35;1.70;;;;;;;;;;5037940;28;20496;-75
2021/12/07 03:36:45;;;;;;;7.22;1.75;;;;;;;;;;5038460;28;20684;-75
2021/12/07 03:39:11;;;;;;;13.38;2.30;;;;;;;;;;5038418;28;20547;-73
2021/12/07 03:41:37;;;;;;;8.80;1.83;;;;;;;;;;5040330;28;20029;-74
2021/12/07 03:44:03;;;;;;;5.82;1.40;;;;;;;;;;5038388;28;20025;-75
2021/12/07 03:46:30;;;;;;;4.38;1.40;;;;;;;;;;5038139;28;20057;-76
2021/12/07 03:48:56;;;;;;;3.50;1.20;;;;;;;;;;5040157;28;20510;-75
2021/12/07 03:51:22;;;;;;;5.85;1.65;;;;;;;;;;5039051;28;20115;-75
2021/12/07 03:53:48;;;;;;;4.35;0.95;;;;;;;;;;5039219;28;20025;-75
2021/12/07 03:56:15;;;;;;;8.52;1.63;;;;;;;;;;5041387;28;20025;-75
2021/12/07 03:58:42;;;;;;;9.88;1.65;;;;;;;;;;5037308;28;20037;-77
2021/12/07 04:01:11;;;;;;;7.63;1.95;;;;;;;;;;5042306;28;20087;-75
2021/12/07 04:03:38;;;;;;;8.82;1.40;;;;;;;;;;5031071;28;20038;-75
2021/12/07 04:06:06;;;;;;;7.97;1.90;;;;;;;;;;5035855;28;20102;-75
2021/12/07 04:08:33;;;;;;;6.88;1.45;;;;;;;;;;5036299;28;20504;-76
2021/12/07 04:11:00;;;;;;;6.22;1.20;;;;;;;;;;5036705;28;20059;-75
2021/12/07 04:13:26;;;;;;;5.47;1.52;;;;;;;;;;5032676;28;20118;-75
2021/12/07 04:15:53;;;;;;;5.57;1.33;;;;;;;;;;5033117;28;20439;-75
2021/12/07 04:18:20;;;;;;;5.13;1.20;;;;;;;;;;5035754;28;20104;-76
2021/12/07 04:20:46;;;;;;;10.68;2.00;;;;;;;;;;5033144;28;20022;-75
2021/12/07 04:23:12;;;;;;;8.45;1.58;;;;;;;;;;5034600;28;20024;-76
2021/12/07 04:25:39;;;;;;;5.10;1.27;;;;;;;;;;5033799;28;20025;-75
2021/12/07 04:28:05;;;;;;;4.75;1.33;;;;;;;;;;5031203;28;20035;-75
2021/12/07 04:30:33;;;;;;;5.72;1.45;;;;;;;;;;5035450;28;20029;-76
2021/12/07 04:33:01;;;;;;;12.73;1.50;;;;;;;;;;5034818;28;20029;-76
2021/12/07 04:35:28;;;;;;;5.82;1.45;;;;;;;;;;5034975;28;20040;-74
2021/12/07 04:37:54;;;;;;;7.95;2.28;;;;;;;;;;5033333;28;20026;-77
2021/12/07 04:40:22;;;;;;;7.78;1.67;;;;;;;;;;5031791;28;20025;-73
2021/12/07 04:42:49;;;;;;;8.95;1.48;;;;;;;;;;5035784;28;20424;-72
2021/12/07 04:45:28;;;;;;;6.25;1.40;;;;;;;;;;5033028;28;20033;-74
2021/12/07 04:58:35;;;;;;;9.52;1.60;;;;;;;;;;5035350;28;20122;-74
2021/12/07 05:01:06;;;;;;;5.32;1.52;;;;;;;;;;5033385;28;20025;-75
2021/12/07 05:03:32;;;;;;;7.13;1.47;;;;;;;;;;5036256;28;20125;-75
2021/12/07 05:05:58;;;;;;;7.40;1.48;;;;;;;;;;5032334;28;20022;-75
2021/12/07 05:08:36;;;;;;;6.85;1.80;;;;;;;;;;5029612;28;20147;-75
2021/12/07 05:24:07;;;;;;;2.67;1.00;;;;;;;;;;5029323;28;19912;-75
2021/12/07 05:37:44;;;;;;;7.97;1.40;;;;;;;;;;5034459;28;20047;-75
2021/12/07 05:37:49;;;;;;;7.00;1.23;;;;;;;;;;5034128;28;20084;-76
2021/12/07 05:40:17;;;;;;;5.10;1.20;;;;;;;;;;5028717;28;20382;-75
2021/12/07 05:42:43;;;;;;;5.03;1.25;;;;;;;;;;5031347;28;20489;-76
2021/12/07 05:45:11;;;;;;;5.00;1.30;;;;;;;;;;5029921;28;20021;-76
2021/12/07 05:47:37;;;;;;;10.00;1.67;;;;;;;;;;5032120;28;20021;-76
2021/12/07 05:50:05;;;;;;;6.00;1.25;;;;;;;;;;5033027;28;20033;-76
2021/12/07 05:52:32;;;;;;;5.25;1.25;;;;;;;;;;5031119;28;20558;-76
2021/12/07 05:54:58;;;;;;;11.70;2.35;;;;;;;;;;5033033;28;20548;-75
2021/12/07 05:57:24;;;;;;;5.57;1.27;;;;;;;;;;5030178;28;20087;-76
2021/12/07 05:59:50;;;;;;;6.10;1.30;;;;;;;;;;5032409;28;20413;-74
2021/12/07 06:02:17;;;;;;;8.23;1.67;;;;;;;;;;5031500;28;20033;-76
2021/12/07 06:04:43;;;;;;;10.20;1.90;;;;;;;;;;5032323;28;20231;-73
2021/12/07 06:07:10;;;;;;;6.47;1.38;;;;;;;;;;5031924;28;20017;-75
2021/12/07 06:09:37;;;;;;;5.10;1.20;;;;;;;;;;5031039;28;20498;-76
2021/12/07 06:12:03;;;;;;;2.60;0.95;;;;;;;;;;5030623;28;20021;-77
2021/12/07 06:14:40;;;;;;;5.60;1.25;;;;;;;;;;5036052;28;20527;-76
2021/12/07 06:17:06;;;;;;;7.20;1.70;;;;;;;;;;5031635;28;20079;-76
2021/12/07 06:19:32;;;;;;;3.83;1.48;;;;;;;;;;5031297;28;20025;-75
2021/12/07 06:21:58;;;;;;;4.97;1.15;;;;;;;;;;5032792;28;20021;-75
2021/12/07 06:24:25;;;;;;;7.07;1.65;;;;;;;;;;5030891;28;20017;-74
2021/12/07 06:26:51;;;;;;;6.97;1.30;;;;;;;;;;5031957;28;20037;-73
2021/12/07 06:29:17;;;;;;;7.65;1.48;;;;;;;;;;5032815;28;20128;-75
2021/12/07 06:31:43;;;;;;;8.02;1.23;;;;;;;;;;5029393;28;20025;-76
2021/12/07 06:34:10;;;;;;;6.18;1.33;;;;;;;;;;5032658;28;20029;-76
2021/12/07 06:36:37;;;;;;;7.53;1.60;;;;;;;;;;5032665;28;20017;-76
2021/12/07 06:39:05;;;;;;;7.43;2.30;;;;;;;;;;5030434;28;20036;-75
2021/12/07 06:41:31;;;;;;;7.35;1.75;;;;;;;;;;5030071;28;20059;-74
2021/12/07 06:43:57;;;;;;;12.15;1.95;;;;;;;;;;5032539;28;20036;-72
2021/12/07 06:46:23;;;;;;;7.57;1.52;;;;;;;;;;5030620;28;20111;-72
2021/12/07 06:48:49;;;;;;;3.25;1.13;;;;;;;;;;5031863;28;20036;-75
2021/12/07 06:51:15;;;;;;;3.17;1.50;;;;;;;;;;5031672;28;20500;-76
2021/12/07 06:53:42;;;;;;;8.27;1.98;;;;;;;;;;5030942;28;20087;-75
2021/12/07 06:56:10;;;;;;;6.88;1.45;;;;;;;;;;5033320;28;20024;-74
2021/12/07 06:58:37;;;;;;;8.07;1.70;;;;;;;;;;5033107;28;20033;-76
2021/12/07 07:01:06;;;;;;;4.78;1.48;;;;;;;;;;5036094;28;20030;-73
2021/12/07 07:03:33;;;;;;;4.60;1.13;;;;;;;;;;5037318;28;20113;-75
2021/12/07 07:05:59;;;;;;;5.90;1.40;;;;;;;;;;5035408;28;20551;-75
2021/12/07 07:08:25;;;;;;;4.43;1.48;;;;;;;;;;5033565;28;20048;-74
2021/12/07 07:10:51;;;;;;;7.43;1.40;;;;;;;;;;5036090;28;20021;-75
2021/12/07 07:13:17;;;;;;;7.43;1.40;;;;;;;;;;5034397;28;20041;-75
2021/12/07 07:15:44;;;;;;;8.20;1.17;;;;;;;;;;5035469;28;20139;-76
2021/12/07 07:18:10;;;;;;;5.68;2.10;;;;;;;;;;5037445;28;20025;-74
2021/12/07 07:20:36;;;;;;;6.53;2.00;;;;;;;;;;5031943;28;20017;-76
2021/12/07 07:23:03;;;;;;;8.57;2.10;;;;;;;;;;5034876;28;20040;-76
2021/12/07 07:25:30;;;;;;;8.52;1.88;;;;;;;;;;5034246;28;20032;-76
2021/12/07 07:27:56;;;;;;;7.97;1.85;;;;;;;;;;5029445;28;20044;-74
2021/12/07 07:30:22;;;;;;;6.57;2.05;;;;;;;;;;5029186;28;20670;-75
2021/12/07 07:32:50;;;;;;;6.70;1.90;;;;;;;;;;5029811;28;20061;-76
2021/12/07 07:35:16;;;;;;;7.05;1.77;;;;;;;;;;5033757;28;20029;-76
2021/12/07 07:37:43;;;;;;;7.70;1.77;;;;;;;;;;5036396;28;20032;-76
2021/12/07 07:40:11;;;;;;;6.53;1.67;;;;;;;;;;5034472;28;20028;-76
2021/12/07 07:42:38;;;;;;;9.70;1.88;;;;;;;;;;5033333;28;20026;-75
2021/12/07 07:45:04;;;;;;;10.05;2.08;;;;;;;;;;5032505;28;20052;-77
2021/12/07 07:47:30;;;;;;;6.88;1.40;;;;;;;;;;5034960;28;20043;-76
2021/12/07 07:49:57;;;;;;;4.63;1.27;;;;;;;;;;5035473;28;20032;-78
2021/12/07 07:52:23;;;;;;;8.50;2.83;;;;;;;;;;5033569;28;20071;-76
2021/12/07 07:54:49;;;;;;;6.30;1.88;;;;;;;;;;5035764;28;20215;-76
2021/12/07 07:57:15;;;;;;;4.13;1.40;;;;;;;;;;5033768;28;20026;-75
2021/12/07 07:59:41;;;;;;;10.48;2.30;;;;;;;;;;5033086;28;20032;-76
2021/12/07 08:02:08;;;;;;;8.90;2.03;;;;;;;;;;5035632;28;20079;-74
2021/12/07 08:04:34;;;;;;;8.50;2.05;;;;;;;;;;5035040;28;20033;-77
2021/12/07 08:07:01;;;;;;;8.90;2.58;;;;;;;;;;5033903;28;20060;-76
2021/12/07 08:09:27;;;;;;;8.30;2.63;;;;;;;;;;5032553;28;20052;-76
2021/12/07 08:11:53;;;;;;;9.75;2.53;;;;;;;;;;5038451;28;20646;-74
2021/12/07 08:14:19;;;;;;;5.03;1.60;;;;;;;;;;5034489;28;20034;-76
2021/12/07 08:16:47;;;;;;;5.43;1.40;;;;;;;;;;5034254;28;20041;-75
2021/12/07 08:19:13;;;;;;;6.93;1.55;;;;;;;;;;5033304;28;20109;-76
2021/12/07 08:21:39;;;;;;;5.30;1.60;;;;;;;;;;5034444;28;20021;-75
2021/12/07 08:24:05;;;;;;;3.03;1.35;;;;;;;;;;5035729;28;20391;-76
2021/12/07 08:26:32;;;;;;;7.63;1.88;;;;;;;;;;5031291;28;20065;-75
2021/12/07 08:28:59;;;;;;;7.05;1.83;;;;;;;;;;5033257;28;20033;-74
2021/12/07 08:31:27;;;;;;;6.03;1.92;;;;;;;;;;5033393;28;20032;-77
2021/12/07 08:33:53;;;;;;;6.20;2.28;;;;;;;;;;5032388;28;20026;-75
2021/12/07 08:36:19;;;;;;;5.88;1.40;;;;;;;;;;5036657;28;20108;-76
2021/12/07 08:38:47;;;;;;;7.47;1.45;;;;;;;;;;5032004;28;20029;-76
2021/12/07 08:41:14;;;;;;;5.03;1.52;;;;;;;;;;5033280;28;20052;-76
2021/12/07 08:43:41;;;;;;;7.22;1.75;;;;;;;;;;5033254;28;20076;-75
2021/12/07 08:46:08;;;;;;;6.32;1.45;;;;;;;;;;5033722;28;20631;-73
2021/12/07 08:48:35;;;;;;;5.82;1.45;;;;;;;;;;5035627;28;20048;-76
2021/12/07 08:51:01;;;;;;;7.40;1.70;;;;;;;;;;5031302;28;20824;-76
2021/12/07 08:53:28;;;;;;;6.68;1.15;;;;;;;;;;5035839;28;20041;-76
2021/12/07 09:01:27;;;;;;;8.45;1.50;;;;;;;;;;5037011;28;20116;-75
2021/12/07 09:03:54;;;;;;;5.43;2.97;;;;;;;;;;5030157;28;20034;-75
2021/12/07 09:06:21;;;;;;;6.90;1.48;;;;;;;;;;5032430;28;20028;-75
2021/12/07 09:08:47;;;;;;;7.22;1.95;;;;;;;;;;5034348;28;20041;-75
2021/12/07 09:11:14;;;;;;;7.03;1.42;;;;;;;;;;5031026;28;20230;-76
2021/12/07 09:13:41;;;;;;;6.13;1.88;;;;;;;;;;5034054;28;20086;-75
2021/12/07 09:16:08;;;;;;;6.68;1.52;;;;;;;;;;5031688;28;20068;-75
2021/12/07 09:18:35;;;;;;;4.68;1.27;;;;;;;;;;5025721;28;20057;-72
2021/12/07 09:21:01;;;;;;;5.38;1.63;;;;;;;;;;5030737;28;20053;-71
2021/12/07 09:23:27;;;;;;;5.72;1.20;;;;;;;;;;5030222;28;20611;-71
2021/12/07 09:25:54;;;;;;;9.80;1.42;;;;;;;;;;5033821;28;20627;-74
2021/12/07 09:28:21;;;;;;;4.57;1.13;;;;;;;;;;5025962;28;20045;-71
2021/12/07 09:30:51;;;;;;;8.48;1.40;;;;;;;;;;5032535;28;20027;-72
2021/12/07 09:33:21;;;;;;;6.30;1.45;;;;;;;;;;5033516;28;20033;-75
2021/12/07 09:35:47;;;;;;;8.43;1.77;;;;;;;;;;5027452;28;20021;-76
2021/12/07 09:38:13;;;;;;;5.63;1.42;;;;;;;;;;5032641;28;20031;-78
2021/12/07 09:40:41;;;;;;;9.73;1.60;;;;;;;;;;5032877;28;20040;-75
2021/12/07 09:43:08;;;;;;;4.97;1.02;;;;;;;;;;5031134;28;20026;-79
2021/12/07 09:45:35;;;;;;;10.68;1.98;;;;;;;;;;5032639;28;20489;-78
2021/12/07 09:48:03;;;;;;;5.18;1.63;;;;;;;;;;5031894;28;20021;-79
2021/12/07 09:50:30;;;;;;;7.38;1.30;;;;;;;;;;5031324;28;20049;-78
2021/12/07 09:52:56;;;;;;;7.20;1.50;;;;;;;;;;5029830;28;20587;-79
2021/12/07 09:55:22;;;;;;;6.90;1.50;;;;;;;;;;5033041;28;20404;-79
2021/12/07 09:57:49;;;;;;;5.72;1.80;;;;;;;;;;5030080;28;20032;-76
2021/12/07 10:00:18;;;;;;;6.45;1.10;;;;;;;;;;5033620;28;20025;-76
2021/12/07 10:02:44;;;;;;;9.45;1.58;;;;;;;;;;5034227;28;20020;-79
2021/12/07 10:05:11;;;;;;;5.28;1.60;;;;;;;;;;5029834;28;20018;-77
2021/12/07 10:07:37;;;;;;;10.68;1.98;;;;;;;;;;5035953;28;20495;-75
2021/12/07 10:10:08;;;;;;;9.65;1.83;;;;;;;;;;5027800;28;20052;-76
2021/12/07 10:12:36;;;;;;;5.13;1.67;;;;;;;;;;5027222;28;20035;-77
2021/12/07 10:15:08;;;;;;;6.78;1.40;;;;;;;;;;5030992;28;20382;-75
2021/12/07 10:17:34;;;;;;;;;;;;;;;;;;5030443;28;20018;-77
2021/12/07 10:20:01;;;;;;;6.40;1.40;;;;;;;;;;5032448;28;20356;-75
2021/12/07 10:22:34;;;;;;;10.70;1.40;;;;;;;;;;5031639;28;20112;-74
2021/12/07 10:25:04;;;;;;;4.30;1.23;;;;;;;;;;5032702;28;20028;-77
2021/12/07 10:27:34;;;;;;;6.20;1.30;;;;;;;;;;5029305;28;20049;-77
2021/12/07 10:30:01;;;;;;;8.60;2.00;;;;;;;;;;5033247;28;20048;-79
2021/12/07 10:32:28;;;;;;;6.45;1.52;;;;;;;;;;5030102;28;20033;-78
2021/12/07 10:34:54;;;;;;;8.20;1.73;;;;;;;;;;5028649;28;20078;-77
2021/12/07 10:37:20;;;;;;;6.55;1.27;;;;;;;;;;5032579;28;20025;-78
2021/12/07 10:39:49;;;;;;;8.55;2.15;;;;;;;;;;5029714;28;20367;-77
2021/12/07 10:42:26;;;;;;;6.13;1.50;;;;;;;;;;5030448;28;20021;-77
2021/12/07 10:44:53;;;;;;;7.05;1.77;;;;;;;;;;5032851;28;20024;-78
2021/12/07 10:47:21;;;;;;;8.07;1.70;;;;;;;;;;5030110;28;20067;-78
2021/12/07 10:49:52;;;;;;;11.43;2.35;;;;;;;;;;5028466;28;20116;-74
2021/12/07 10:52:18;;;;;;;11.27;1.85;;;;;;;;;;5030098;28;20029;-75
2021/12/07 10:54:47;;;;;;;6.55;1.65;;;;;;;;;;5031283;28;20025;-76
2021/12/07 10:57:18;;;;;;;11.73;2.03;;;;;;;;;;5032776;28;20021;-77
2021/12/07 10:59:54;;;;;;;9.40;1.80;;;;;;;;;;5032945;28;20059;-74
2021/12/07 11:02:21;;;;;;;8.27;1.30;;;;;;;;;;5032763;28;20023;-78
2021/12/07 11:04:49;;;;;;;6.07;1.30;;;;;;;;;;5029441;28;20031;-78
2021/12/07 11:07:20;;;;;;;7.38;1.40;;;;;;;;;;5030662;28;20378;-78
2021/12/07 11:09:51;;;;;;;14.73;1.50;;;;;;;;;;5032254;28;20056;-78
2021/12/07 11:12:19;;;;;;;5.97;1.77;;;;;;;;;;5030565;28;20022;-75
2021/12/07 11:14:52;;;;;;;6.45;1.70;;;;;;;;;;5028077;28;20587;-77
2021/12/07 11:17:34;;;;;;;5.75;1.55;;;;;;;;;;5030851;28;20497;-76
2021/12/07 11:20:01;;;;;;;11.10;1.75;;;;;;;;;;5030017;28;20033;-78
2021/12/07 11:22:31;;;;;;;8.32;1.33;;;;;;;;;;5030516;28;20605;-74
2021/12/07 11:24:57;;;;;;;3.47;1.17;;;;;;;;;;5032390;28;20027;-78
2021/12/07 11:30:15;;;;;;;5.85;1.15;;;;;;;;;;5028969;28;20048;-78
2021/12/07 11:32:43;;;;;;;4.78;1.40;;;;;;;;;;5030111;28;20013;-77
2021/12/07 11:35:14;;;;;;;8.07;1.45;;;;;;;;;;5027122;28;20047;-77
2021/12/07 11:37:40;;;;;;;10.32;1.58;;;;;;;;;;5029411;28;20489;-78
2021/12/07 11:40:08;;;;;;;10.75;1.58;;;;;;;;;;5031849;28;20710;-78
2021/12/07 11:42:37;;;;;;;5.65;1.35;;;;;;;;;;5027420;28;20029;-77
2021/12/07 11:45:25;;;;;;;4.07;0.80;;;;;;;;;;5032008;28;20036;-76
2021/12/07 11:47:58;;;;;;;5.93;1.25;;;;;;;;;;5035229;28;20021;-78
2021/12/07 11:50:32;;;;;;;6.78;1.40;;;;;;;;;;5032854;28;20041;-77
2021/12/07 11:53:03;;;;;;;6.85;1.60;;;;;;;;;;5031854;28;20029;-75
2021/12/07 11:55:31;;;;;;;10.15;1.70;;;;;;;;;;5033311;28;20047;-74
2021/12/07 11:57:57;;;;;;;9.10;1.50;;;;;;;;;;5033744;28;20025;-79
2021/12/07 12:00:26;;;;;;;10.95;1.75;;;;;;;;;;5035614;28;20055;-77
2021/12/07 12:02:52;;;;;;;10.63;2.05;;;;;;;;;;5031736;28;20029;-76
2021/12/07 12:05:19;;;;;;;8.70;1.55;;;;;;;;;;5033444;28;20513;-78
2021/12/07 12:07:46;;;;;;;11.02;2.42;;;;;;;;;;5039983;28;20036;-77
2021/12/07 12:10:13;;;;;;;7.88;1.67;;;;;;;;;;5032579;28;20034;-77
2021/12/07 12:12:58;;;;;;;5.50;1.50;;;;;;;;;;5032276;28;20033;-78
2021/12/07 12:15:24;;;;;;;6.88;1.90;;;;;;;;;;5034460;28;20146;-79
2021/12/07 12:18:00;;;;;;;3.95;1.10;;;;;;;;;;5038638;28;20037;-81
2021/12/07 12:20:26;;;;;;;3.42;1.30;;;;;;;;;;5032880;28;20105;-79
2021/12/07 12:23:05;;;;;;;11.90;2.92;;;;;;;;;;5028877;28;20076;-78
2021/12/07 12:25:31;;;;;;;8.07;1.45;;;;;;;;;;5032176;28;20051;-76
2021/12/07 12:27:58;;;;;;;4.07;1.48;;;;;;;;;;5034687;28;20028;-73
2021/12/07 12:30:36;;;;;;;12.13;1.63;;;;;;;;;;5035147;28;20040;-78
2021/12/07 12:33:04;;;;;;;7.22;1.30;;;;;;;;;;5033983;28;20051;-77
2021/12/07 12:35:35;;;;;;;9.90;2.63;;;;;;;;;;5030098;28;20031;-79
2021/12/07 12:38:01;;;;;;;6.15;1.65;;;;;;;;;;5033699;28;20035;-75
2021/12/07 12:40:30;;;;;;;5.40;2.17;;;;;;;;;;5028846;28;20034;-79
2021/12/07 12:42:57;;;;;;;12.93;2.08;;;;;;;;;;5030043;28;20029;-78
2021/12/07 13:00:20;;;;;;;12.70;2.78;;;;;;;;;;5077329;27;20398;-72
2021/12/07 13:02:55;;;;;;;7.82;2.35;;;;;;;;;;5068759;28;20078;-75
2021/12/07 13:05:36;;;;;;;14.02;2.50;;;;;;;;;;5082520;28;20025;-77
2021/12/07 13:08:12;;;;;;;11.23;3.40;;;;;;;;;;5062401;28;20163;-72
2021/12/07 13:10:58;;;;;;;11.65;3.55;;;;;;;;;;5057086;28;20025;-74
2021/12/07 13:13:30;;;;;;;17.00;2.83;;;;;;;;;;5058571;28;20479;-72
2021/12/07 13:15:57;;;;;;;10.23;2.20;;;;;;;;;;5058860;28;20020;-72
2021/12/07 13:18:31;;;;;;;7.63;1.80;;;;;;;;;;5058387;28;20035;-72
2021/12/07 13:20:57;;;;;;;8.95;2.35;;;;;;;;;;5056678;28;20057;-72
2021/12/07 13:23:29;;;;;;;9.02;2.08;;;;;;;;;;5058347;28;20027;-72
2021/12/07 13:25:55;;;;;;;8.32;2.00;;;;;;;;;;5058030;28;20029;-73
2021/12/07 13:28:22;;;;;;;12.60;3.55;;;;;;;;;;5058868;28;20100;-78
2021/12/07 13:30:49;;;;;;;13.43;2.20;;;;;;;;;;5057179;28;20028;-72
2021/12/07 13:33:21;;;;;;;8.35;2.05;;;;;;;;;;5058394;28;20111;-78
2021/12/07 13:35:49;;;;;;;9.00;1.77;;;;;;;;;;5065026;28;20024;-73
2021/12/07 13:38:16;;;;;;;14.25;2.80;;;;;;;;;;5058321;28;20032;-72
2021/12/07 13:40:43;;;;;;;12.57;2.88;;;;;;;;;;5058318;28;20045;-72
2021/12/07 13:43:09;;;;;;;10.70;2.65;;;;;;;;;;5057032;28;20041;-72
2021/12/07 13:45:35;;;;;;;13.15;3.38;;;;;;;;;;5056260;28;20521;-73
2021/12/07 13:48:03;;;;;;;15.52;2.97;;;;;;;;;;5057924;28;20120;-72
2021/12/07 13:50:30;;;;;;;12.80;2.30;;;;;;;;;;5057807;28;20067;-74
2021/12/07 13:52:57;;;;;;;11.50;2.83;;;;;;;;;;5057421;28;20040;-72
2021/12/07 13:55:28;;;;;;;9.45;2.78;;;;;;;;;;5056480;28;20619;-72
2021/12/07 13:57:55;;;;;;;20.08;4.22;;;;;;;;;;5049277;28;20029;-74
2021/12/07 14:00:22;;;;;;;7.95;3.05;;;;;;;;;;5044043;28;20043;-72
2021/12/07 14:02:55;;;;;;;9.43;3.10;;;;;;;;;;5044020;28;20024;-72
2021/12/07 14:05:27;;;;;;;10.15;2.35;;;;;;;;;;5044101;28;20449;-73
2021/12/07 14:07:54;;;;;;;16.95;2.50;;;;;;;;;;5042834;28;20448;-78
2021/12/07 14:10:28;;;;;;;12.43;2.65;;;;;;;;;;5042752;28;20025;-73
2021/12/07 14:12:55;;;;;;;10.43;2.83;;;;;;;;;;5043709;28;20033;-76
2021/12/07 14:15:25;;;;;;;11.55;2.42;;;;;;;;;;5044033;28;20108;-73
2021/12/07 14:17:55;;;;;;;11.98;3.08;;;;;;;;;;5043895;28;20048;-73
2021/12/07 14:20:33;;;;;;;12.00;2.22;;;;;;;;;;5043885;28;20024;-72
2021/12/07 14:22:59;;;;;;;11.88;3.88;;;;;;;;;;5042942;28;20033;-72
2021/12/07 14:25:26;;;;;;;13.10;2.83;;;;;;;;;;5044051;28;20052;-72
2021/12/07 14:27:52;;;;;;;12.98;3.28;;;;;;;;;;5043618;28;20082;-75
2021/12/07 14:30:18;;;;;;;10.38;3.65;;;;;;;;;;5043999;28;20024;-73
2021/12/07 14:32:45;;;;;;;11.82;2.60;;;;;;;;;;5043932;28;20087;-72
2021/12/07 14:35:11;;;;;;;8.85;2.28;;;;;;;;;;5043746;28;20016;-72
2021/12/07 14:37:38;;;;;;;9.73;3.67;;;;;;;;;;5042121;28;20439;-72
2021/12/07 14:40:06;;;;;;;15.95;3.08;;;;;;;;;;5043950;28;20114;-72
2021/12/07 14:42:32;;;;;;;7.65;2.75;;;;;;;;;;5043990;28;20059;-72
2021/12/07 14:44:59;;;;;;;13.00;3.40;;;;;;;;;;5043519;28;20095;-72
2021/12/07 14:47:28;;;;;;;14.25;2.55;;;;;;;;;;5041914;28;20033;-72
2021/12/07 14:50:00;;;;;;;10.05;2.80;;;;;;;;;;5043916;28;20483;-72
2021/12/07 14:52:29;;;;;;;9.68;2.10;;;;;;;;;;5042996;28;20082;-72
2021/12/07 14:54:56;;;;;;;14.70;2.55;;;;;;;;;;5043570;28;20108;-72
2021/12/07 14:57:23;;;;;;;11.27;2.47;;;;;;;;;;5043593;28;20036;-73
2021/12/07 14:59:52;;;;;;;10.50;2.08;;;;;;;;;;5041861;28;20092;-72
2021/12/07 15:02:18;;;;;;;12.07;2.40;;;;;;;;;;5043347;28;20499;-72
2021/12/07 15:04:45;;;;;;;9.63;2.17;;;;;;;;;;5041705;28;20521;-72
2021/12/07 15:07:15;;;;;;;13.77;3.08;;;;;;;;;;5042906;28;20556;-71
2021/12/07 15:09:42;;;;;;;7.82;1.73;;;;;;;;;;5040742;28;20017;-72
2021/12/07 15:12:09;;;;;;;8.20;1.77;;;;;;;;;;5043045;28;20064;-73
2021/12/07 15:14:36;;;;;;;11.15;2.10;;;;;;;;;;5042661;28;20100;-71
2021/12/07 15:17:03;;;;;;;11.55;2.15;;;;;;;;;;5041357;28;20106;-72
2021/12/07 15:19:30;;;;;;;10.20;2.50;;;;;;;;;;5042266;28;20021;-72
2021/12/07 15:21:56;;;;;;;10.10;2.10;;;;;;;;;;5043044;28;20100;-73
2021/12/07 15:24:25;;;;;;;9.55;2.63;;;;;;;;;;5042132;28;20033;-72
2021/12/07 15:26:52;;;;;;;10.48;1.95;;;;;;;;;;5041551;28;20036;-72
2021/12/07 15:29:20;;;;;;;15.00;2.58;;;;;;;;;;5042955;28;20081;-72
2021/12/07 15:32:07;;;;;;;13.10;2.72;;;;;;;;;;5040833;28;20025;-72
2021/12/07 15:34:34;;;;;;;13.00;2.33;;;;;;;;;;5042499;28;20184;-72
2021/12/07 15:37:01;;;;;;;5.65;1.55;;;;;;;;;;5042283;28;20040;-72
2021/12/07 15:39:32;;;;;;;7.32;2.08;;;;;;;;;;5041230;28;20029;-72
2021/12/07 15:42:00;;;;;;;11.88;1.67;;;;;;;;;;5042575;28;20036;-75
2021/12/07 15:44:27;;;;;;;14.45;2.20;;;;;;;;;;5040116;28;20021;-72
2021/12/07 15:46:58;;;;;;;12.65;2.10;;;;;;;;;;5042348;28;20526;-72
2021/12/07 15:49:26;;;;;;;10.65;2.55;;;;;;;;;;5042323;28;20028;-72
2021/12/07 15:51:53;;;;;;;10.52;2.05;;;;;;;;;;5042317;28;20059;-72
2021/12/07 15:54:20;;;;;;;13.32;2.58;;;;;;;;;;5042202;28;20046;-72
2021/12/07 15:56:55;;;;;;;7.75;2.42;;;;;;;;;;5040446;28;20082;-72
2021/12/07 15:59:21;;;;;;;9.02;1.95;;;;;;;;;;5040973;28;20060;-79
2021/12/07 16:01:47;;;;;;;8.30;1.83;;;;;;;;;;5041795;28;20043;-73
2021/12/07 16:04:26;;;;;;;16.17;3.78;;;;;;;;;;5041788;28;20025;-73
2021/12/07 16:06:52;;;;;;;15.32;3.45;;;;;;;;;;5040846;28;20551;-73
2021/12/07 16:09:19;;;;;;;14.00;2.45;;;;;;;;;;5042059;28;20016;-73
2021/12/07 16:11:46;;;;;;;10.45;2.40;;;;;;;;;;5041879;28;20651;-77
2021/12/07 16:14:22;;;;;;;11.48;1.92;;;;;;;;;;5041276;28;20023;-72
2021/12/07 16:16:48;;;;;;;11.82;2.97;;;;;;;;;;5041806;28;20025;-72
2021/12/07 16:19:14;;;;;;;8.45;1.85;;;;;;;;;;5040182;28;20691;-72
2021/12/07 16:21:41;;;;;;;8.50;2.70;;;;;;;;;;5041259;28;20521;-73
2021/12/07 16:24:08;;;;;;;10.18;2.42;;;;;;;;;;5041454;28;20408;-73
2021/12/07 16:26:34;;;;;;;8.25;2.15;;;;;;;;;;5041613;28;20033;-73
2021/12/07 16:29:00;;;;;;;10.90;2.22;;;;;;;;;;5041776;28;20100;-73
2021/12/07 16:31:28;;;;;;;9.55;2.40;;;;;;;;;;5041839;28;20112;-73
2021/12/07 16:33:55;;;;;;;10.40;1.73;;;;;;;;;;5039704;28;20013;-76
2021/12/07 16:36:21;;;;;;;11.77;1.90;;;;;;;;;;5041581;28;20116;-72
2021/12/07 16:38:48;;;;;;;14.02;2.60;;;;;;;;;;5041409;28;20104;-72
2021/12/07 16:41:15;;;;;;;12.57;2.08;;;;;;;;;;5041424;28;20025;-72
2021/12/07 16:43:43;;;;;;;10.90;2.10;;;;;;;;;;5040475;28;20025;-74
2021/12/07 16:46:09;;;;;;;10.63;2.10;;;;;;;;;;5040930;28;20031;-72
2021/12/07 16:48:35;;;;;;;9.98;2.47;;;;;;;;;;5040901;28;20025;-72
2021/12/07 16:51:03;;;;;;;9.20;2.10;;;;;;;;;;5041358;28;20025;-79
2021/12/07 16:53:29;;;;;;;8.73;3.08;;;;;;;;;;5041009;28;20018;-72
2021/12/07 16:55:55;;;;;;;9.27;2.33;;;;;;;;;;5040302;28;20498;-72
2021/12/07 16:58:22;;;;;;;13.98;2.05;;;;;;;;;;5040135;28;20036;-72
2021/12/07 17:00:49;;;;;;;8.98;1.55;;;;;;;;;;5040910;28;20053;-73
2021/12/07 17:03:16;;;;;;;11.52;1.98;;;;;;;;;;5041132;28;20064;-72
2021/12/07 17:05:43;;;;;;;10.23;2.30;;;;;;;;;;5041119;28;20252;-73
2021/12/07 17:08:10;;;;;;;14.13;2.22;;;;;;;;;;5040028;28;20082;-72
2021/12/07 17:10:37;;;;;;;8.90;2.05;;;;;;;;;;5041527;28;20032;-72
2021/12/07 17:13:03;;;;;;;12.88;2.55;;;;;;;;;;5041078;28;20029;-73
2021/12/07 17:15:29;;;;;;;7.47;1.83;;;;;;;;;;5040855;28;20400;-71
2021/12/07 17:17:55;;;;;;;8.38;2.30;;;;;;;;;;5041071;28;20029;-72
2021/12/07 17:20:23;;;;;;;9.52;2.55;;;;;;;;;;5040743;28;20544;-75
2021/12/07 17:22:49;;;;;;;9.65;2.80;;;;;;;;;;5040076;28;20029;-72
2021/12/07 17:25:16;;;;;;;14.88;2.90;;;;;;;;;;5041594;28;20036;-72
2021/12/07 17:27:43;;;;;;;11.55;2.33;;;;;;;;;;5040793;28;20033;-73
2021/12/07 17:30:11;;;;;;;14.43;2.33;;;;;;;;;;5041042;28;20535;-72
2021/12/07 17:32:38;;;;;;;11.15;1.83;;;;;;;;;;5041774;28;20025;-72
2021/12/07 17:35:05;;;;;;;13.30;2.08;;;;;;;;;;5043172;28;20021;-74
2021/12/07 17:37:31;;;;;;;15.68;2.70;;;;;;;;;;5044340;28;20028;-72
2021/12/07 17:39:57;;;;;;;11.82;2.10;;;;;;;;;;5043325;28;20495;-73
2021/12/07 17:42:23;;;;;;;10.20;2.25;;;;;;;;;;5044635;28;20033;-75